Weather observations for the past three days for
Granbury, Granbury Municipal Airport
Metric (Imperial)
Date Time (cdt) Wind (kph) Vis. (km) Weather Sky Cond. Temperature (ºC) Relative Humidity Wind Chill (°C) Heat Index (°C) Pressure Precipitation (cm)
Air Dwpt 6 hour altimeter (cm) sea level (mb) 1 hr 3 hr 6 hr
Max. Min.
10 01:35 S 13 16.09 Fair CLR 23 19 78% 75.67 0.0
10 01:15 S 15 16.09 Fair CLR 24 19 74% 25 75.67 0.0
10 00:55 S 22 G 30 16.09 Fair CLR 24 18 32.3 23.9 69% 25 75.62 0.0
10 00:35 S 22 G 28 16.09 Fair CLR 25 18 65% 26 75.62 0.0
10 00:15 S 19 16.09 Fair CLR 25 18 65% 26 75.62 0.0
09 23:55 S 19 16.09 Fair CLR 25 17 61% 26 75.62 0.0
09 23:35 SE 15 16.09 Fair CLR 25 16 57% 26 75.62 0.0
09 23:15 S 19 16.09 Fair CLR 25 16 57% 26 75.64 0.0
09 22:55 S 15 16.09 Fair CLR 25 16 57% 26 75.64 0.0
09 22:15 S 15 16.09 Fair CLR 25 15 54% 26 75.64 0.0
09 21:55 S 13 16.09 Fair CLR 24 16 61% 25 75.64 0.0
09 21:35 SE 9 16.09 Fair CLR 25 16 57% 26 75.62 0.0
09 21:15 S 9 16.09 Fair CLR 26 16 54% 27 75.59 0.0
09 20:55 SE 13 16.09 Fair CLR 27 16 51% 27 75.59 0.0
09 20:35 SE 15 16.09 Fair CLR 28 17 51% 29 75.57 0.0
09 20:15 SE 15 16.09 Fair CLR 28 17 51% 29 75.54 0.0
09 19:55 SE 15 16.09 Fair CLR 30 16 43% 30 75.54 0.0
09 19:35 E 17 16.09 Fair CLR 31 16 40% 31 75.54 0.0
09 19:15 SE 13 16.09 Fair CLR 32 15 36% 32 75.54 0.0
09 18:55 SE 13 16.09 Fair CLR 32 15 33.2 28.9 36% 32 75.54 0.0
09 18:35 E 13 16.09 Fair CLR 32 15 36% 32 75.54 0.0
09 18:15 E 15 16.09 Fair CLR 33 15 34% 33 75.54 0.0
09 17:55 E 11 16.09 Fair CLR 33 15 34% 33 75.54 0.0
09 17:35 E 7 16.09 Fair CLR 32 15 36% 32 75.54 0.0
09 17:15 SE 15 16.09 Fair CLR 33 15 34% 33 75.54 0.0
09 16:55 Vrbl 6 16.09 Fair CLR 33 15 34% 33 75.54 0.0
09 16:35 Vrbl 7 16.09 Fair CLR 32 14 33% 31 75.57 0.0
09 16:15 NE 13 16.09 Fair CLR 33 15 34% 33 75.59 0.0
09 15:55 SE 13 16.09 Fair CLR 32 15 36% 32 75.62 0.0
09 15:35 Vrbl 6 16.09 Fair CLR 32 14 33% 31 75.64 0.0
09 15:15 E 9 16.09 Fair CLR 32 14 33% 31 75.64 0.0
09 14:55 E 11 16.09 Fair CLR 32 15 36% 32 75.67 0.0
09 14:35 NE 9 16.09 Fair CLR 31 15 38% 31 75.69 0.0
09 14:15 Vrbl 6 16.09 Fair CLR 31 16 40% 31 75.69 0.0
09 13:55 Vrbl 4 16.09 Fair CLR 30 16 43% 30 75.72 0.0
09 13:35 Vrbl 11 16.09 Fair CLR 30 16 43% 30 75.72 0.0
09 13:15 Vrbl 9 16.09 Fair CLR 30 17 46% 30 75.74 0.0
09 12:55 Vrbl 4 16.09 Fair CLR 29 16 29.1 17.1 45% 29 75.77 0.0
09 12:35 NW 9 16.09 Fair CLR 29 17 48% 29 75.79 0.0
09 12:15 N 9 16.09 Fair CLR 29 16 45% 29 75.79 0.0
09 11:55 Vrbl 7 16.09 Fair CLR 27 16 51% 27 75.82 0.0
09 11:35 NW 6 16.09 Fair CLR 27 16 51% 27 75.82 0.0
09 11:15 NW 9 16.09 Fair CLR 26 16 54% 27 75.82 0.0
09 10:55 Vrbl 6 16.09 Light Drizzle CLR 25 16 57% 26 75.82 0.0
09 10:35 Vrbl 7 16.09 Fair CLR 26 16 54% 27 75.82 0.0
09 10:15 Vrbl 7 16.09 Fair CLR 25 17 61% 26 75.82 0.0
09 09:55 Vrbl 9 16.09 Fair CLR 24 17 65% 25 75.84 0.0
09 09:35 NW 11 16.09 Fair CLR 23 17 69% 75.84 0.0
09 09:15 NW 13 16.09 Fair CLR 23 17 69% 75.82 0.0
09 08:55 NW 17 16.09 Fair CLR 23 17 69% 75.82 0.0
09 08:35 NW 15 16.09 Fair CLR 21 16 73% 75.82 0.0
09 08:15 NW 11 16.09 Fair CLR 20 16 78% 75.79 0.0
09 07:55 N 13 16.09 Fair CLR 19 16 83% 75.77 0.0
09 07:35 N 9 16.09 Fair CLR 19 16 83% 75.77 0.0
09 07:15 N 7 16.09 Fair CLR 18 16 88% 75.77 0.0
09 06:55 N 9 16.09 Fair CLR 17 16 94% 75.77 0.0
09 06:35 W 11 16.09 Fair CLR 18 17 94% 75.77 0.0
09 06:15 SW 7 16.09 Fair CLR 18 17 94% 75.74 0.0
09 05:55 SW 9 16.09 Fair CLR 19 17 88% 75.77 0.0
09 05:35 NE 9 16.09 NULL NULL 19 17 88% 75.69 0.0
08 23:35 S 9 16.09 Fair CLR 21 19 88% 75.72 0.0
08 23:15 S 9 16.09 Fair CLR 21 19 88% 75.69 0.0
08 22:55 S 19 16.09 Fair CLR 21 19 88% 75.69 0.0
08 22:35 S 15 16.09 Fair CLR 21 19 88% 75.67 0.0
08 22:15 S 11 16.09 Fair CLR 21 19 88% 75.69 0.0
08 21:55 SE 9 16.09 Fair CLR 22 19 83% 75.67 0.0
08 21:35 S 13 16.09 Mostly Cloudy BKN060 22 19 83% 75.64 0.0
08 21:15 SE 9 16.09 Overcast FEW027 OVC060 22 19 83% 75.64 0.0
08 20:55 SE 9 16.09 Overcast BKN027 OVC060 22 19 83% 75.64 0.0
08 20:35 SE 7 16.09 Overcast BKN027 OVC060 22 19 83% 75.62 0.0
08 20:15 SE 7 16.09 Mostly Cloudy BKN029 BKN060 23 19 78% 75.62 0.0
08 19:35 E 7 16.09 Overcast OVC025 24 19 74% 25 75.57 0.0
08 19:15 SE 9 16.09 Overcast OVC025 24 19 74% 25 75.59 0.0
08 18:55 SE 9 16.09 Overcast OVC025 25 19 25.3 18.6 69% 26 75.59 0.0
08 18:35 S 11 16.09 Overcast OVC027 24 19 74% 25 75.59 0.0
08 18:15 SE 13 16.09 Mostly Cloudy BKN029 24 19 74% 25 75.59 0.0
08 17:55 SE 15 16.09 A Few Clouds FEW031 24 19 74% 25 75.57 0.0
08 17:15 SE 15 16.09 Overcast OVC023 24 19 74% 25 75.62 0.0
08 16:55 E 13 16.09 Overcast OVC023 23 18 74% 75.62 0.0
08 16:35 E 13 16.09 Mostly Cloudy BKN021 BKN120 23 17 69% 75.67 0.0
08 16:15 E 13 16.09 Mostly Cloudy BKN021 BKN120 22 17 73% 75.67 0.0
08 15:55 Vrbl 9 16.09 Mostly Cloudy BKN021 22 17 73% 75.69 0.0
08 15:35 E 11 16.09 Mostly Cloudy BKN021 BKN110 21 17 78% 75.72 0.0
08 15:15 Vrbl 9 16.09 Mostly Cloudy SCT021 BKN110 21 17 78% 75.74 0.0
08 14:55 SE 17 G 28 16.09 Mostly Cloudy BKN110 20 18 88% 75.72 0.0
08 14:35 SE 19 11.27 Light Rain BKN022 BKN055 BKN110 19 17 88% 75.77 0.0
08 14:15 S 11 3.22 Light Rain Haze OVC024 20 16 78% 75.84 0.0
08 13:55 SE 13 16.09 Overcast BKN026 OVC060 22 15 65% 75.84 0.0
08 13:35 SE 13 16.09 Mostly Cloudy BKN026 BKN033 BKN060 23 16 65% 75.82 0.0
08 13:15 SE 17 16.09 Overcast OVC026 22 15 65% 75.87 0.0
08 12:55 SE 17 16.09 Overcast OVC026 22 15 23.4 13.4 65% 75.9 0.0
08 12:35 E 9 16.09 Mostly Cloudy BKN024 22 15 65% 75.92 0.0
08 12:15 E 11 16.09 Mostly Cloudy BKN024 23 15 61% 75.9 0.0
08 11:55 SE 13 16.09 Overcast OVC022 21 14 64% 75.92 0.0
08 11:35 Vrbl 9 16.09 Overcast OVC020 21 14 64% 75.95 0.0
08 11:15 SE 13 16.09 Overcast OVC020 20 14 69% 75.97 0.0
08 10:55 SE 9 16.09 Overcast OVC020 19 13 68% 76 0.0
08 10:35 SE 13 16.09 Overcast OVC020 19 13 68% 76.02 0.0
08 10:15 E 11 16.09 Overcast OVC022 19 14 73% 76.02 0.0
08 09:55 E 7 16.09 Overcast OVC022 18 14 78% 76.05 0.0
08 09:35 Vrbl 7 16.09 Overcast BKN018 OVC024 19 13 68% 76.05 0.0
08 09:15 Vrbl 4 16.09 Overcast OVC020 19 13 68% 76.05 0.0
08 08:55 Calm 16.09 Overcast OVC020 18 14 78% 76.05 0.0
08 08:15 Vrbl 6 16.09 Overcast OVC018 16 14 88% 76.05 0.0
08 07:35 E 4 16.09 Mostly Cloudy FEW020 BKN060 BKN090 15 13 88% 76.05 0.0
08 07:15 E 2 16.09 Mostly Cloudy BKN050 BKN080 BKN090 14 13 94% 76.05 0.0
08 06:55 S 6 16.09 Overcast BKN055 OVC080 14 13 15 12.3 94% 76.05 0.0
08 06:35 NE 7 16.09 Light Rain BKN055 OVC075 13 12 94% 76.05 0.0
08 06:15 N 6 16.09 Overcast SCT049 OVC075 14 12 88% 76.07 0.0
08 05:55 S 7 16.09 Overcast BKN049 BKN060 OVC075 14 13 94% 76.07 0.0
08 05:35 S 13 16.09 Overcast OVC055 13 12 94% 76.05 0.0
08 05:15 SW 7 16.09 Overcast OVC055 13 12 94% 76.07 0.0
08 04:55 SW 9 16.09 Overcast OVC055 12 12 100% 76.07 0.0
08 04:35 NW 6 16.09 Overcast BKN065 OVC070 13 12 94% 76.07 0.0
08 04:15 NW 6 16.09 Mostly Cloudy FEW046 BKN055 BKN075 13 12 94% 76.05 0.0
08 03:55 E 6 16.09 Overcast BKN046 BKN055 OVC075 14 12 88% 76.02 0.0
08 03:35 SE 6 16.09 Overcast OVC046 14 12 88% 76.02 0.0
08 03:15 S 7 16.09 Overcast BKN046 OVC060 14 12 88% 76.02 0.0
08 02:35 NE 2 16.09 Overcast SCT060 BKN070 OVC080 15 12 82% 76.1 0.0
08 02:15 N 6 16.09 Overcast OVC070 15 12 82% 76.12 0.0
08 01:55 NW 4 16.09 Overcast OVC070 14 12 88% 76.12 0.0
08 01:35 N 6 16.09 Overcast OVC070 14 12 88% 76.12 0.0
08 01:15 Calm 16.09 Overcast OVC070 14 12 88% 76.15 0.0
08 00:55 S 4 16.09 Overcast OVC070 15 12 19.4 14.9 82% 76.12 0.0
08 00:35 SW 7 16.09 Overcast OVC070 15 12 82% 76.15 0.0
08 00:15 SW 4 16.09 Mostly Cloudy BKN060 BKN075 16 12 77% 76.15 0.0
07 23:55 SW 11 16.09 Partly Cloudy FEW060 SCT110 15 12 82% 76.17 0.0
07 23:35 SW 7 16.09 Mostly Cloudy FEW055 BKN110 15 12 82% 76.17 0.0
07 23:15 SW 4 16.09 Partly Cloudy FEW055 SCT120 15 12 82% 76.15 0.0
07 22:55 SW 6 16.09 Overcast OVC120 16 12 77% 76.17 0.0
07 22:35 S 6 16.09 Mostly Cloudy BKN120 16 12 77% 76.15 0.0
07 21:55 S 6 16.09 Mostly Cloudy FEW055 BKN120 17 11 68% 76.1 0.0
07 21:35 S 2 16.09 Mostly Cloudy SCT055 BKN120 17 12 73% 76.1 0.0
07 21:15 SE 2 16.09 Mostly Cloudy SCT055 BKN120 17 12 73% 76.07 0.0
07 20:55 S 7 16.09 Mostly Cloudy FEW055 BKN120 17 11 68% 76.07 0.0
07 20:35 SE 7 16.09 Partly Cloudy SCT120 18 11 64% 76.07 0.0
07 20:15 S 6 16.09 Fair CLR 18 11 64% 76.07 0.0
07 19:55 SE 6 16.09 Fair CLR 18 11 64% 76.1 0.0
07 19:35 SE 7 16.09 Fair CLR 19 10 56% 76.07 0.0
07 19:15 S 7 16.09 Fair CLR 19 11 60% 76.1 0.0
07 18:55 S 9 16.09 Fair CLR 19 11 22.4 19.3 60% 76.1 0.0
07 18:36 S 9 16.09 Fair CLR 19 11 60% 76.15 0.0
07 18:15 S 11 16.09 Fair CLR 20 10 53% 76.12 0.0
07 17:55 SE 9 16.09 Fair CLR 20 10 53% 76.15 0.0
07 17:35 Vrbl 4 16.09 Fair CLR 20 10 53% 76.15 0.0
07 17:15 SE 9 16.09 Fair CLR 20 11 56% 76.15 0.0
07 16:55 SE 11 16.09 Fair CLR 20 10 53% 76.17 0.0
07 16:35 SE 15 16.09 Fair CLR 20 10 53% 76.15 0.0
07 16:15 Vrbl 9 16.09 Fair CLR 21 10 50% 76.17 0.0
07 15:55 Vrbl 7 16.09 A Few Clouds FEW120 21 9 46% 76.23 0.0
07 15:35 SE 9 16.09 A Few Clouds FEW120 21 10 50% 76.25 0.0
07 15:15 Vrbl 9 16.09 A Few Clouds FEW120 21 9 46% 76.23 0.0
07 14:35 NE 13 16.09 A Few Clouds FEW120 22 9 44% 76.25 0.0
07 14:15 NE 9 16.09 Fair CLR 21 9 46% 76.25 0.0
07 13:55 NE 4 16.09 Fair CLR 22 10 47% 76.3 0.0
07 13:35 Vrbl 11 16.09 Fair CLR 22 9 44% 76.33 0.0
07 13:15 Vrbl 9 G 28 16.09 Fair CLR 22 9 44% 76.33 0.0
07 12:55 NE 26 16.09 Fair CLR 21 9 21.4 9.6 46% 76.33 0.0
07 12:15 N 20 16.09 Fair CLR 20 10 53% 76.35 0.0
07 11:55 N 11 16.09 Fair CLR 20 10 53% 76.38 0.0
07 11:35 NE 15 16.09 Fair CLR 19 10 56% 76.43 0.0
07 10:55 NE 15 16.09 Fair CLR 18 10 60% 76.45 0.0
07 10:36 NE 15 16.09 Fair CLR 18 10 60% 76.43 0.0
07 10:15 NE 11 16.09 Fair CLR 17 10 64% 76.45 0.0
07 09:55 NE 11 16.09 Fair CLR 17 11 68% 76.45 0.0
07 09:35 NE 9 16.09 Fair CLR 16 11 72% 76.45 0.0
07 09:15 NE 9 16.09 Fair CLR 15 11 77% 76.48 0.0
07 08:55 Vrbl 6 16.09 Fair CLR 14 11 82% 76.48 0.0
07 08:35 Vrbl 6 16.09 Fair CLR 13 10 82% 76.5 0.0
07 08:15 Vrbl 4 16.09 Fair CLR 12 10 88% 76.5 0.0
07 07:55 W 6 16.09 Fair CLR 11 10 94% 76.5 0.0
07 07:35 Vrbl 4 16.09 Fair CLR 10 9 94% 76.5 0.0
07 07:15 NW 7 16.09 Fair CLR 10 9 94% 9 76.5 0.0
07 06:55 W 6 16.09 Fair CLR 10 9 13.2 9.7 94% 76.5 0.0
07 06:35 W 7 16.09 Fair CLR 10 9 94% 9 76.5 0.0
07 05:55 W 7 16.09 Fair CLR 10 9 94% 9 76.48 0.0
07 05:35 NW 6 16.09 Fair CLR 10 9 94% 76.43 0.0
07 05:15 NW 7 16.09 Fair CLR 10 9 94% 9 76.4 0.0
07 04:55 NW 13 16.09 Fair CLR 11 9 88% 76.38 0.0
07 04:35 N 11 16.09 Fair CLR 10 9 94% 9 76.35 0.0
07 04:15 N 11 16.09 A Few Clouds FEW022 FEW033 10 9 94% 9 76.33 0.0
07 03:55 NW 7 16.09 Mostly Cloudy SCT022 BKN033 11 10 94% 76.33 0.0
07 03:35 NW 6 16.09 A Few Clouds FEW022 FEW029 12 10 88% 76.33 0.0
07 03:15 N 11 16.09 A Few Clouds FEW027 12 10 88% 76.3 0.0
07 02:55 N 11 16.09 Mostly Cloudy BKN027 12 10 88% 76.28 0.0
07 02:35 N 6 16.09 Mostly Cloudy BKN027 12 10 88% 76.3 0.0
07 02:15 N 9 16.09 Fair CLR 12 10 88% 76.28 0.0
Date Time (cdt) Wind (kph) Vis. (km) Weather Sky Cond. Air Dwpt Max. Min. Relative Humidity Wind Chill (°C) Heat Index (°C) altimeter (cm) sea level (mb) 1 hr 3 hr 6 hr
6 hour
Temperature (ºC) Pressure Precipitation (cm)